Terminal Aerodrome Forecast
Issued by NWS

Home | Current Version | Previous Version | Text Only | Print | Product List | Glossary On
Versions: 1 2 3 4 5 6 7 8 9 10 11 12 13 14 15 16 17 18 19 20 21 22
000
FTUS43 KMQT 271735
TAFIWD
TAF
KIWD 271735Z 2718/2818 05005KT P6SM VCSH OVC100
     FM280100 07006KT 6SM BR OVC035
     FM280800 13004KT 1SM BR OVC003
     FM281300 00000KT P6SM BKN015=

USA.gov is the U.S. government's official web portal to all federal, state and local government web resources and services.